sensor_id;sensor_type;location;lat;lon;timestamp;P1;P2;P0
55549;PMS7003;41397;49.972;18.944;2024-02-16T00:00:17;19;19;13
55549;PMS7003;41397;49.972;18.944;2024-02-16T00:03:24;15;15;12
55549;PMS7003;41397;49.972;18.944;2024-02-16T00:06:25;19;19;10
55549;PMS7003;41397;49.972;18.944;2024-02-16T00:09:26;16;16;10
55549;PMS7003;41397;49.972;18.944;2024-02-16T00:12:27;20;19;14
55549;PMS7003;41397;49.972;18.944;2024-02-16T00:15:29;17;17;11
55549;PMS7003;41397;49.972;18.944;2024-02-16T00:18:30;17;17;12
55549;PMS7003;41397;49.972;18.944;2024-02-16T00:21:31;18;18;15
55549;PMS7003;41397;49.972;18.944;2024-02-16T00:24:33;17;17;13
55549;PMS7003;41397;49.972;18.944;2024-02-16T00:27:34;13;13;10
55549;PMS7003;41397;49.972;18.944;2024-02-16T00:30:35;14;14;9
55549;PMS7003;41397;49.972;18.944;2024-02-16T00:33:37;11;11;8
55549;PMS7003;41397;49.972;18.944;2024-02-16T00:36:41;15;15;11
55549;PMS7003;41397;49.972;18.944;2024-02-16T00:39:42;17;17;13
55549;PMS7003;41397;49.972;18.944;2024-02-16T00:42:43;22;22;16
55549;PMS7003;41397;49.972;18.944;2024-02-16T00:45:44;23;23;17
55549;PMS7003;41397;49.972;18.944;2024-02-16T00:48:49;23;23;17
55549;PMS7003;41397;49.972;18.944;2024-02-16T00:51:55;23;23;17
55549;PMS7003;41397;49.972;18.944;2024-02-16T00:54:56;21;21;14
55549;PMS7003;41397;49.972;18.944;2024-02-16T00:57:58;23;19;16
55549;PMS7003;41397;49.972;18.944;2024-02-16T01:00:59;12;11;5
55549;PMS7003;41397;49.972;18.944;2024-02-16T01:04:00;41;33;19
55549;PMS7003;41397;49.972;18.944;2024-02-16T01:07:02;38;30;17
55549;PMS7003;41397;49.972;18.944;2024-02-16T01:10:04;18;18;11
55549;PMS7003;41397;49.972;18.944;2024-02-16T01:13:05;46;38;26
55549;PMS7003;41397;49.972;18.944;2024-02-16T01:16:06;44;38;25
55549;PMS7003;41397;49.972;18.944;2024-02-16T01:19:08;37;33;22
55549;PMS7003;41397;49.972;18.944;2024-02-16T01:22:10;38;32;22
55549;PMS7003;41397;49.972;18.944;2024-02-16T01:25:13;39;34;22
55549;PMS7003;41397;49.972;18.944;2024-02-16T01:28:14;31;26;20
55549;PMS7003;41397;49.972;18.944;2024-02-16T01:31:15;43;37;24
55549;PMS7003;41397;49.972;18.944;2024-02-16T01:34:16;40;34;21
55549;PMS7003;41397;49.972;18.944;2024-02-16T01:37:21;42;36;23
55549;PMS7003;41397;49.972;18.944;2024-02-16T01:40:22;42;35;23
55549;PMS7003;41397;49.972;18.944;2024-02-16T01:43:27;45;37;23
55549;PMS7003;41397;49.972;18.944;2024-02-16T01:46:28;40;34;24
55549;PMS7003;41397;49.972;18.944;2024-02-16T01:49:30;38;33;22
55549;PMS7003;41397;49.972;18.944;2024-02-16T01:52:31;47;40;24
55549;PMS7003;41397;49.972;18.944;2024-02-16T01:55:36;43;36;22
55549;PMS7003;41397;49.972;18.944;2024-02-16T01:58:37;47;38;27
55549;PMS7003;41397;49.972;18.944;2024-02-16T02:01:38;49;40;27
55549;PMS7003;41397;49.972;18.944;2024-02-16T02:04:39;39;34;20
55549;PMS7003;41397;49.972;18.944;2024-02-16T02:07:41;48;37;23
55549;PMS7003;41397;49.972;18.944;2024-02-16T02:10:43;39;34;22
55549;PMS7003;41397;49.972;18.944;2024-02-16T02:13:45;47;40;26
55549;PMS7003;41397;49.972;18.944;2024-02-16T02:16:46;48;39;27
55549;PMS7003;41397;49.972;18.944;2024-02-16T02:19:48;47;38;23
55549;PMS7003;41397;49.972;18.944;2024-02-16T02:22:49;51;41;28
55549;PMS7003;41397;49.972;18.944;2024-02-16T02:25:53;45;38;24
55549;PMS7003;41397;49.972;18.944;2024-02-16T02:28:54;42;37;24
55549;PMS7003;41397;49.972;18.944;2024-02-16T02:31:55;54;41;28
55549;PMS7003;41397;49.972;18.944;2024-02-16T02:34:56;48;40;27
55549;PMS7003;41397;49.972;18.944;2024-02-16T02:38:01;39;34;24
55549;PMS7003;41397;49.972;18.944;2024-02-16T02:41:03;55;46;29
55549;PMS7003;41397;49.972;18.944;2024-02-16T02:44:04;53;44;27
55549;PMS7003;41397;49.972;18.944;2024-02-16T02:47:06;57;45;28
55549;PMS7003;41397;49.972;18.944;2024-02-16T02:50:09;59;45;28
55549;PMS7003;41397;49.972;18.944;2024-02-16T02:53:10;50;40;26
55549;PMS7003;41397;49.972;18.944;2024-02-16T02:56:11;55;43;29
55549;PMS7003;41397;49.972;18.944;2024-02-16T02:59:12;53;44;28
55549;PMS7003;41397;49.972;18.944;2024-02-16T03:02:17;54;44;28
55549;PMS7003;41397;49.972;18.944;2024-02-16T03:05:18;50;41;26
55549;PMS7003;41397;49.972;18.944;2024-02-16T03:08:22;53;44;29
55549;PMS7003;41397;49.972;18.944;2024-02-16T03:11:23;50;42;28
55549;PMS7003;41397;49.972;18.944;2024-02-16T03:14:25;50;40;28
55549;PMS7003;41397;49.972;18.944;2024-02-16T03:17:26;45;38;26
55549;PMS7003;41397;49.972;18.944;2024-02-16T03:20:27;57;46;29
55549;PMS7003;41397;49.972;18.944;2024-02-16T03:23:30;53;40;25
55549;PMS7003;41397;49.972;18.944;2024-02-16T03:26:33;50;42;26
55549;PMS7003;41397;49.972;18.944;2024-02-16T03:29:34;52;41;25
55549;PMS7003;41397;49.972;18.944;2024-02-16T03:32:35;52;41;26
55549;PMS7003;41397;49.972;18.944;2024-02-16T03:35:36;49;41;27
55549;PMS7003;41397;49.972;18.944;2024-02-16T03:38:42;50;41;28
55549;PMS7003;41397;49.972;18.944;2024-02-16T03:41:44;61;49;32
55549;PMS7003;41397;49.972;18.944;2024-02-16T03:44:49;56;47;30
55549;PMS7003;41397;49.972;18.944;2024-02-16T03:47:50;55;45;30
55549;PMS7003;41397;49.972;18.944;2024-02-16T03:50:54;59;48;29
55549;PMS7003;41397;49.972;18.944;2024-02-16T03:53:55;60;49;31
55549;PMS7003;41397;49.972;18.944;2024-02-16T03:56:56;60;53;29
55549;PMS7003;41397;49.972;18.944;2024-02-16T03:59:58;52;43;29
55549;PMS7003;41397;49.972;18.944;2024-02-16T04:02:59;59;52;31
55549;PMS7003;41397;49.972;18.944;2024-02-16T04:06:00;61;52;36
55549;PMS7003;41397;49.972;18.944;2024-02-16T04:09:05;64;54;33
55549;PMS7003;41397;49.972;18.944;2024-02-16T04:12:06;67;64;32
55549;PMS7003;41397;49.972;18.944;2024-02-16T04:15:08;59;50;30
55549;PMS7003;41397;49.972;18.944;2024-02-16T04:18:09;66;62;39
55549;PMS7003;41397;49.972;18.944;2024-02-16T04:21:10;68;60;36
55549;PMS7003;41397;49.972;18.944;2024-02-16T04:24:12;59;51;33
55549;PMS7003;41397;49.972;18.944;2024-02-16T04:27:14;64;53;32
55549;PMS7003;41397;49.972;18.944;2024-02-16T04:30:15;68;62;37
55549;PMS7003;41397;49.972;18.944;2024-02-16T04:33:16;72;64;35
55549;PMS7003;41397;49.972;18.944;2024-02-16T04:36:17;70;67;38
55549;PMS7003;41397;49.972;18.944;2024-02-16T04:39:22;65;55;31
55549;PMS7003;41397;49.972;18.944;2024-02-16T04:42:23;63;57;34
55549;PMS7003;41397;49.972;18.944;2024-02-16T04:45:24;66;59;35
55549;PMS7003;41397;49.972;18.944;2024-02-16T04:48:27;65;59;34
55549;PMS7003;41397;49.972;18.944;2024-02-16T04:51:30;64;60;37
55549;PMS7003;41397;49.972;18.944;2024-02-16T04:54:31;56;48;31
55549;PMS7003;41397;49.972;18.944;2024-02-16T04:57:33;66;60;36
55549;PMS7003;41397;49.972;18.944;2024-02-16T05:00:35;62;56;39
55549;PMS7003;41397;49.972;18.944;2024-02-16T05:03:38;66;60;35
55549;PMS7003;41397;49.972;18.944;2024-02-16T05:06:42;63;56;35
55549;PMS7003;41397;49.972;18.944;2024-02-16T05:09:43;69;65;35
55549;PMS7003;41397;49.972;18.944;2024-02-16T05:12:45;66;59;36
55549;PMS7003;41397;49.972;18.944;2024-02-16T05:15:46;64;57;28
55549;PMS7003;41397;49.972;18.944;2024-02-16T05:18:49;66;58;34
55549;PMS7003;41397;49.972;18.944;2024-02-16T05:21:51;66;62;37
55549;PMS7003;41397;49.972;18.944;2024-02-16T05:24:52;61;54;34
55549;PMS7003;41397;49.972;18.944;2024-02-16T05:27:54;73;60;35
55549;PMS7003;41397;49.972;18.944;2024-02-16T05:30:55;67;61;38
55549;PMS7003;41397;49.972;18.944;2024-02-16T05:33:58;54;44;28
55549;PMS7003;41397;49.972;18.944;2024-02-16T05:36:59;73;66;39
55549;PMS7003;41397;49.972;18.944;2024-02-16T05:40:03;65;59;36
55549;PMS7003;41397;49.972;18.944;2024-02-16T05:43:21;71;64;34
55549;PMS7003;41397;49.972;18.944;2024-02-16T05:46:23;62;54;33
55549;PMS7003;41397;49.972;18.944;2024-02-16T05:49:24;68;57;36
55549;PMS7003;41397;49.972;18.944;2024-02-16T05:52:25;68;60;36
55549;PMS7003;41397;49.972;18.944;2024-02-16T05:55:30;60;50;32
55549;PMS7003;41397;49.972;18.944;2024-02-16T05:58:31;60;47;27
55549;PMS7003;41397;49.972;18.944;2024-02-16T06:01:34;64;56;32
55549;PMS7003;41397;49.972;18.944;2024-02-16T06:04:35;58;50;36
55549;PMS7003;41397;49.972;18.944;2024-02-16T06:07:37;58;48;32
55549;PMS7003;41397;49.972;18.944;2024-02-16T06:10:39;66;56;29
55549;PMS7003;41397;49.972;18.944;2024-02-16T06:13:42;72;62;40
55549;PMS7003;41397;49.972;18.944;2024-02-16T06:16:43;65;60;39
55549;PMS7003;41397;49.972;18.944;2024-02-16T06:19:45;61;52;31
55549;PMS7003;41397;49.972;18.944;2024-02-16T06:22:47;72;65;37
55549;PMS7003;41397;49.972;18.944;2024-02-16T06:25:48;64;59;34
55549;PMS7003;41397;49.972;18.944;2024-02-16T06:28:49;62;54;33
55549;PMS7003;41397;49.972;18.944;2024-02-16T06:31:54;66;59;37
55549;PMS7003;41397;49.972;18.944;2024-02-16T06:34:55;65;54;34
55549;PMS7003;41397;49.972;18.944;2024-02-16T06:37:56;55;46;32
55549;PMS7003;41397;49.972;18.944;2024-02-16T06:40:57;69;58;34
55549;PMS7003;41397;49.972;18.944;2024-02-16T06:44:02;71;58;41
55549;PMS7003;41397;49.972;18.944;2024-02-16T06:47:03;69;56;31
55549;PMS7003;41397;49.972;18.944;2024-02-16T06:50:05;61;52;31
55549;PMS7003;41397;49.972;18.944;2024-02-16T06:53:07;62;54;31
55549;PMS7003;41397;49.972;18.944;2024-02-16T06:56:10;63;54;33
55549;PMS7003;41397;49.972;18.944;2024-02-16T06:59:11;60;51;33
55549;PMS7003;41397;49.972;18.944;2024-02-16T07:02:12;53;45;29
55549;PMS7003;41397;49.972;18.944;2024-02-16T07:05:15;62;53;34
55549;PMS7003;41397;49.972;18.944;2024-02-16T07:08:18;61;52;33
55549;PMS7003;41397;49.972;18.944;2024-02-16T07:11:19;50;42;26
55549;PMS7003;41397;49.972;18.944;2024-02-16T07:14:21;55;45;29
55549;PMS7003;41397;49.972;18.944;2024-02-16T07:17:22;59;47;29
55549;PMS7003;41397;49.972;18.944;2024-02-16T07:20:26;61;52;34
55549;PMS7003;41397;49.972;18.944;2024-02-16T07:23:28;62;50;29
55549;PMS7003;41397;49.972;18.944;2024-02-16T07:26:29;59;49;30
55549;PMS7003;41397;49.972;18.944;2024-02-16T07:29:30;59;49;32
55549;PMS7003;41397;49.972;18.944;2024-02-16T07:32:35;57;48;33
55549;PMS7003;41397;49.972;18.944;2024-02-16T07:35:36;58;48;31
55549;PMS7003;41397;49.972;18.944;2024-02-16T07:38:38;61;47;31
55549;PMS7003;41397;49.972;18.944;2024-02-16T07:41:40;60;50;33
55549;PMS7003;41397;49.972;18.944;2024-02-16T07:44:43;56;46;29
55549;PMS7003;41397;49.972;18.944;2024-02-16T07:47:45;57;47;32
55549;PMS7003;41397;49.972;18.944;2024-02-16T07:50:46;53;44;29
55549;PMS7003;41397;49.972;18.944;2024-02-16T07:53:50;55;46;31
55549;PMS7003;41397;49.972;18.944;2024-02-16T07:56:51;62;49;34
55549;PMS7003;41397;49.972;18.944;2024-02-16T07:59:52;52;44;28
55549;PMS7003;41397;49.972;18.944;2024-02-16T08:02:54;59;47;30
55549;PMS7003;41397;49.972;18.944;2024-02-16T08:05:55;58;48;28
55549;PMS7003;41397;49.972;18.944;2024-02-16T08:08:59;49;42;28
55549;PMS7003;41397;49.972;18.944;2024-02-16T08:12:00;61;51;33
55549;PMS7003;41397;49.972;18.944;2024-02-16T08:15:07;54;45;29
55549;PMS7003;41397;49.972;18.944;2024-02-16T08:18:08;60;51;28
55549;PMS7003;41397;49.972;18.944;2024-02-16T08:21:12;60;46;31
55549;PMS7003;41397;49.972;18.944;2024-02-16T08:24:13;50;42;27
55549;PMS7003;41397;49.972;18.944;2024-02-16T08:27:14;56;47;28
55549;PMS7003;41397;49.972;18.944;2024-02-16T08:30:16;52;44;27
55549;PMS7003;41397;49.972;18.944;2024-02-16T08:33:17;45;38;24
55549;PMS7003;41397;49.972;18.944;2024-02-16T08:36:18;36;32;15
55549;PMS7003;41397;49.972;18.944;2024-02-16T08:39:26;64;55;32
55549;PMS7003;41397;49.972;18.944;2024-02-16T08:42:27;54;45;30
55549;PMS7003;41397;49.972;18.944;2024-02-16T08:45:28;54;45;31
55549;PMS7003;41397;49.972;18.944;2024-02-16T08:48:30;55;45;29
55549;PMS7003;41397;49.972;18.944;2024-02-16T08:51:31;57;48;31
55549;PMS7003;41397;49.972;18.944;2024-02-16T08:54:34;58;46;30
55549;PMS7003;41397;49.972;18.944;2024-02-16T08:57:35;60;49;31
55549;PMS7003;41397;49.972;18.944;2024-02-16T09:00:36;57;47;29
55549;PMS7003;41397;49.972;18.944;2024-02-16T09:03:37;65;50;30
55549;PMS7003;41397;49.972;18.944;2024-02-16T09:06:40;59;49;33
55549;PMS7003;41397;49.972;18.944;2024-02-16T09:09:42;59;48;31
55549;PMS7003;41397;49.972;18.944;2024-02-16T09:12:44;34;30;18
55549;PMS7003;41397;49.972;18.944;2024-02-16T09:15:45;51;43;29
55549;PMS7003;41397;49.972;18.944;2024-02-16T09:18:48;57;43;27
55549;PMS7003;41397;49.972;18.944;2024-02-16T09:21:50;50;42;28
55549;PMS7003;41397;49.972;18.944;2024-02-16T09:24:54;67;60;34
55549;PMS7003;41397;49.972;18.944;2024-02-16T09:28:00;49;38;25
55549;PMS7003;41397;49.972;18.944;2024-02-16T09:31:01;42;36;23
55549;PMS7003;41397;49.972;18.944;2024-02-16T09:34:03;46;37;25
55549;PMS7003;41397;49.972;18.944;2024-02-16T09:37:04;42;36;24
55549;PMS7003;41397;49.972;18.944;2024-02-16T09:40:06;40;35;26
55549;PMS7003;41397;49.972;18.944;2024-02-16T09:43:20;34;31;23
55549;PMS7003;41397;49.972;18.944;2024-02-16T09:46:23;38;33;22
55549;PMS7003;41397;49.972;18.944;2024-02-16T09:49:25;33;30;22
55549;PMS7003;41397;49.972;18.944;2024-02-16T09:52:26;45;34;22
55549;PMS7003;41397;49.972;18.944;2024-02-16T09:55:29;34;31;21
55549;PMS7003;41397;49.972;18.944;2024-02-16T09:58:34;39;34;23
55549;PMS7003;41397;49.972;18.944;2024-02-16T10:01:36;46;39;25
55549;PMS7003;41397;49.972;18.944;2024-02-16T10:04:37;49;40;25
55549;PMS7003;41397;49.972;18.944;2024-02-16T10:07:38;46;39;26
55549;PMS7003;41397;49.972;18.944;2024-02-16T10:10:40;48;40;25
55549;PMS7003;41397;49.972;18.944;2024-02-16T10:13:42;47;39;26
55549;PMS7003;41397;49.972;18.944;2024-02-16T10:16:43;42;36;25
55549;PMS7003;41397;49.972;18.944;2024-02-16T10:19:44;24;24;17
55549;PMS7003;41397;49.972;18.944;2024-02-16T10:22:50;26;25;18
55549;PMS7003;41397;49.972;18.944;2024-02-16T10:25:56;28;26;17
55549;PMS7003;41397;49.972;18.944;2024-02-16T10:29:05;24;24;18
55549;PMS7003;41397;49.972;18.944;2024-02-16T10:32:07;28;27;17
55549;PMS7003;41397;49.972;18.944;2024-02-16T10:35:08;19;19;13
55549;PMS7003;41397;49.972;18.944;2024-02-16T10:38:12;24;24;18
55549;PMS7003;41397;49.972;18.944;2024-02-16T10:41:14;24;24;18
55549;PMS7003;41397;49.972;18.944;2024-02-16T10:44:19;16;16;14
55549;PMS7003;41397;49.972;18.944;2024-02-16T10:47:20;10;10;10
55549;PMS7003;41397;49.972;18.944;2024-02-16T10:50:21;5;5;5
55549;PMS7003;41397;49.972;18.944;2024-02-16T10:53:27;13;10;4
55549;PMS7003;41397;49.972;18.944;2024-02-16T10:56:39;3;3;3
55549;PMS7003;41397;49.972;18.944;2024-02-16T10:59:41;2;2;2
55549;PMS7003;41397;49.972;18.944;2024-02-16T11:06:02;4;4;3
55549;PMS7003;41397;49.972;18.944;2024-02-16T11:12:32;6;6;5
55549;PMS7003;41397;49.972;18.944;2024-02-16T11:15:37;4;4;3
55549;PMS7003;41397;49.972;18.944;2024-02-16T11:18:42;4;4;4
55549;PMS7003;41397;49.972;18.944;2024-02-16T11:24:58;2;2;2
55549;PMS7003;41397;49.972;18.944;2024-02-16T11:27:59;3;3;3
55549;PMS7003;41397;49.972;18.944;2024-02-16T11:31:02;3;3;3
55549;PMS7003;41397;49.972;18.944;2024-02-16T11:34:04;1;1;1
55549;PMS7003;41397;49.972;18.944;2024-02-16T11:37:05;2;2;2
55549;PMS7003;41397;49.972;18.944;2024-02-16T11:40:07;2;2;2
55549;PMS7003;41397;49.972;18.944;2024-02-16T11:43:19;2;2;1
55549;PMS7003;41397;49.972;18.944;2024-02-16T11:46:23;4;4;3
55549;PMS7003;41397;49.972;18.944;2024-02-16T11:49:26;3;3;2
55549;PMS7003;41397;49.972;18.944;2024-02-16T11:52:28;1;1;0
55549;PMS7003;41397;49.972;18.944;2024-02-16T11:55:29;4;4;3
55549;PMS7003;41397;49.972;18.944;2024-02-16T11:58:33;0;0;0
55549;PMS7003;41397;49.972;18.944;2024-02-16T12:01:34;2;2;2
55549;PMS7003;41397;49.972;18.944;2024-02-16T12:04:36;3;3;2
55549;PMS7003;41397;49.972;18.944;2024-02-16T12:07:38;6;6;6
55549;PMS7003;41397;49.972;18.944;2024-02-16T12:10:42;6;6;4
55549;PMS7003;41397;49.972;18.944;2024-02-16T12:13:44;5;5;4
55549;PMS7003;41397;49.972;18.944;2024-02-16T12:16:47;3;3;3
55549;PMS7003;41397;49.972;18.944;2024-02-16T12:19:50;4;4;3
55549;PMS7003;41397;49.972;18.944;2024-02-16T12:22:52;4;4;3
55549;PMS7003;41397;49.972;18.944;2024-02-16T12:25:53;3;3;3
55549;PMS7003;41397;49.972;18.944;2024-02-16T12:28:54;5;5;4
55549;PMS7003;41397;49.972;18.944;2024-02-16T12:31:55;3;3;2
55549;PMS7003;41397;49.972;18.944;2024-02-16T12:34:56;2;2;2
55549;PMS7003;41397;49.972;18.944;2024-02-16T12:37:58;4;4;3
55549;PMS7003;41397;49.972;18.944;2024-02-16T12:40:59;3;3;2
55549;PMS7003;41397;49.972;18.944;2024-02-16T12:44:00;1;1;1
55549;PMS7003;41397;49.972;18.944;2024-02-16T12:47:02;3;3;2
55549;PMS7003;41397;49.972;18.944;2024-02-16T12:50:03;4;4;3
55549;PMS7003;41397;49.972;18.944;2024-02-16T12:53:05;2;2;2
55549;PMS7003;41397;49.972;18.944;2024-02-16T12:56:09;4;4;3
55549;PMS7003;41397;49.972;18.944;2024-02-16T12:59:12;6;6;5
55549;PMS7003;41397;49.972;18.944;2024-02-16T13:02:13;4;4;3
55549;PMS7003;41397;49.972;18.944;2024-02-16T13:05:14;4;4;4
55549;PMS7003;41397;49.972;18.944;2024-02-16T13:08:15;4;4;3
55549;PMS7003;41397;49.972;18.944;2024-02-16T13:11:16;4;4;3
55549;PMS7003;41397;49.972;18.944;2024-02-16T13:14:18;2;2;2
55549;PMS7003;41397;49.972;18.944;2024-02-16T13:17:19;1;1;1
55549;PMS7003;41397;49.972;18.944;2024-02-16T13:20:20;3;3;2
55549;PMS7003;41397;49.972;18.944;2024-02-16T13:23:24;1;1;1
55549;PMS7003;41397;49.972;18.944;2024-02-16T13:26:26;6;6;4
55549;PMS7003;41397;49.972;18.944;2024-02-16T13:29:27;2;2;1
55549;PMS7003;41397;49.972;18.944;2024-02-16T13:32:28;3;3;3
55549;PMS7003;41397;49.972;18.944;2024-02-16T13:35:30;3;3;3
55549;PMS7003;41397;49.972;18.944;2024-02-16T13:38:31;3;3;3
55549;PMS7003;41397;49.972;18.944;2024-02-16T13:41:32;4;4;4
55549;PMS7003;41397;49.972;18.944;2024-02-16T13:44:34;4;4;2
55549;PMS7003;41397;49.972;18.944;2024-02-16T13:47:38;4;4;4
55549;PMS7003;41397;49.972;18.944;2024-02-16T13:50:47;2;2;1
55549;PMS7003;41397;49.972;18.944;2024-02-16T13:53:49;3;3;3
55549;PMS7003;41397;49.972;18.944;2024-02-16T13:56:53;3;3;3
55549;PMS7003;41397;49.972;18.944;2024-02-16T13:59:54;1;1;1
55549;PMS7003;41397;49.972;18.944;2024-02-16T14:02:55;3;3;3
55549;PMS7003;41397;49.972;18.944;2024-02-16T14:05:57;3;3;3
55549;PMS7003;41397;49.972;18.944;2024-02-16T14:08:59;3;3;3
55549;PMS7003;41397;49.972;18.944;2024-02-16T14:12:00;9;7;6
55549;PMS7003;41397;49.972;18.944;2024-02-16T14:15:02;6;6;5
55549;PMS7003;41397;49.972;18.944;2024-02-16T14:18:03;5;5;3
55549;PMS7003;41397;49.972;18.944;2024-02-16T14:21:07;4;4;3
55549;PMS7003;41397;49.972;18.944;2024-02-16T14:24:09;3;3;2
55549;PMS7003;41397;49.972;18.944;2024-02-16T14:27:12;5;5;3
55549;PMS7003;41397;49.972;18.944;2024-02-16T14:30:13;5;5;4
55549;PMS7003;41397;49.972;18.944;2024-02-16T14:33:15;2;2;2
55549;PMS7003;41397;49.972;18.944;2024-02-16T14:36:17;3;3;1
55549;PMS7003;41397;49.972;18.944;2024-02-16T14:39:18;6;6;4
55549;PMS7003;41397;49.972;18.944;2024-02-16T14:42:19;6;4;3
55549;PMS7003;41397;49.972;18.944;2024-02-16T14:45:20;2;2;1
55549;PMS7003;41397;49.972;18.944;2024-02-16T14:48:21;2;2;1
55549;PMS7003;41397;49.972;18.944;2024-02-16T14:51:23;1;1;1
55549;PMS7003;41397;49.972;18.944;2024-02-16T14:54:24;3;3;3
55549;PMS7003;41397;49.972;18.944;2024-02-16T14:57:28;1;1;1
55549;PMS7003;41397;49.972;18.944;2024-02-16T15:00:29;3;3;3
55549;PMS7003;41397;49.972;18.944;2024-02-16T15:03:30;3;3;2
55549;PMS7003;41397;49.972;18.944;2024-02-16T15:06:32;5;5;3
55549;PMS7003;41397;49.972;18.944;2024-02-16T15:09:37;3;3;3
55549;PMS7003;41397;49.972;18.944;2024-02-16T15:12:38;6;6;6
55549;PMS7003;41397;49.972;18.944;2024-02-16T15:15:40;4;4;3
55549;PMS7003;41397;49.972;18.944;2024-02-16T15:18:41;5;5;4
55549;PMS7003;41397;49.972;18.944;2024-02-16T15:21:42;3;3;3
55549;PMS7003;41397;49.972;18.944;2024-02-16T15:24:43;2;2;2
55549;PMS7003;41397;49.972;18.944;2024-02-16T15:27:45;1;1;1
55549;PMS7003;41397;49.972;18.944;2024-02-16T15:30:46;3;3;3
55549;PMS7003;41397;49.972;18.944;2024-02-16T15:33:47;4;4;3
55549;PMS7003;41397;49.972;18.944;2024-02-16T15:36:49;1;1;1
55549;PMS7003;41397;49.972;18.944;2024-02-16T15:39:51;5;5;5
55549;PMS7003;41397;49.972;18.944;2024-02-16T15:43:03;5;5;4
55549;PMS7003;41397;49.972;18.944;2024-02-16T15:46:07;7;7;5
55549;PMS7003;41397;49.972;18.944;2024-02-16T15:49:08;6;6;2
55549;PMS7003;41397;49.972;18.944;2024-02-16T15:52:15;5;5;5
55549;PMS7003;41397;49.972;18.944;2024-02-16T15:55:17;1;1;1
55549;PMS7003;41397;49.972;18.944;2024-02-16T15:58:20;6;6;4
55549;PMS7003;41397;49.972;18.944;2024-02-16T16:01:21;4;4;3
55549;PMS7003;41397;49.972;18.944;2024-02-16T16:04:23;11;11;9
55549;PMS7003;41397;49.972;18.944;2024-02-16T16:07:24;11;11;9
55549;PMS7003;41397;49.972;18.944;2024-02-16T16:10:25;11;11;9
55549;PMS7003;41397;49.972;18.944;2024-02-16T16:13:26;12;12;8
55549;PMS7003;41397;49.972;18.944;2024-02-16T16:16:31;8;8;6
55549;PMS7003;41397;49.972;18.944;2024-02-16T16:19:32;6;6;5
55549;PMS7003;41397;49.972;18.944;2024-02-16T16:22:33;5;5;5
55549;PMS7003;41397;49.972;18.944;2024-02-16T16:25:35;10;10;8
55549;PMS7003;41397;49.972;18.944;2024-02-16T16:29:39;7;7;6
55549;PMS7003;41397;49.972;18.944;2024-02-16T16:32:40;12;12;9
55549;PMS7003;41397;49.972;18.944;2024-02-16T16:35:41;17;11;9
55549;PMS7003;41397;49.972;18.944;2024-02-16T16:38:47;7;7;6
55549;PMS7003;41397;49.972;18.944;2024-02-16T16:41:48;9;9;7
55549;PMS7003;41397;49.972;18.944;2024-02-16T16:44:49;7;7;6
55549;PMS7003;41397;49.972;18.944;2024-02-16T16:47:50;7;7;4
55549;PMS7003;41397;49.972;18.944;2024-02-16T16:50:55;11;11;8
55549;PMS7003;41397;49.972;18.944;2024-02-16T16:53:56;11;11;8
55549;PMS7003;41397;49.972;18.944;2024-02-16T16:56:57;10;10;9
55549;PMS7003;41397;49.972;18.944;2024-02-16T16:59:58;16;16;13
55549;PMS7003;41397;49.972;18.944;2024-02-16T17:03:03;19;18;10
55549;PMS7003;41397;49.972;18.944;2024-02-16T17:06:07;16;16;14
55549;PMS7003;41397;49.972;18.944;2024-02-16T17:09:08;17;17;15
55549;PMS7003;41397;49.972;18.944;2024-02-16T17:12:11;18;18;13
55549;PMS7003;41397;49.972;18.944;2024-02-16T17:15:15;21;21;19
55549;PMS7003;41397;49.972;18.944;2024-02-16T17:18:20;21;21;14
55549;PMS7003;41397;49.972;18.944;2024-02-16T17:21:21;17;17;13
55549;PMS7003;41397;49.972;18.944;2024-02-16T17:24:22;5;5;2
55549;PMS7003;41397;49.972;18.944;2024-02-16T17:27:23;24;24;16
55549;PMS7003;41397;49.972;18.944;2024-02-16T17:30:24;27;27;16
55549;PMS7003;41397;49.972;18.944;2024-02-16T17:33:26;17;17;9
55549;PMS7003;41397;49.972;18.944;2024-02-16T17:36:27;18;18;16
55549;PMS7003;41397;49.972;18.944;2024-02-16T17:39:28;24;22;18
55549;PMS7003;41397;49.972;18.944;2024-02-16T17:42:29;24;24;17
55549;PMS7003;41397;49.972;18.944;2024-02-16T17:45:30;30;29;18
55549;PMS7003;41397;49.972;18.944;2024-02-16T17:48:32;31;30;21
55549;PMS7003;41397;49.972;18.944;2024-02-16T17:51:34;30;30;21
55549;PMS7003;41397;49.972;18.944;2024-02-16T17:54:35;26;26;19
55549;PMS7003;41397;49.972;18.944;2024-02-16T17:57:36;25;25;16
55549;PMS7003;41397;49.972;18.944;2024-02-16T18:00:37;26;26;17
55549;PMS7003;41397;49.972;18.944;2024-02-16T18:03:43;26;26;15
55549;PMS7003;41397;49.972;18.944;2024-02-16T18:06:45;37;33;23
55549;PMS7003;41397;49.972;18.944;2024-02-16T18:09:46;33;27;19
55549;PMS7003;41397;49.972;18.944;2024-02-16T18:12:47;29;28;20
55549;PMS7003;41397;49.972;18.944;2024-02-16T18:15:51;19;19;15
55549;PMS7003;41397;49.972;18.944;2024-02-16T18:18:55;20;20;15
55549;PMS7003;41397;49.972;18.944;2024-02-16T18:21:57;14;14;11
55549;PMS7003;41397;49.972;18.944;2024-02-16T18:24:58;21;21;16
55549;PMS7003;41397;49.972;18.944;2024-02-16T18:27:59;20;20;15
55549;PMS7003;41397;49.972;18.944;2024-02-16T18:31:00;16;16;11
55549;PMS7003;41397;49.972;18.944;2024-02-16T18:34:01;13;13;10
55549;PMS7003;41397;49.972;18.944;2024-02-16T18:37:05;13;13;8
55549;PMS7003;41397;49.972;18.944;2024-02-16T18:40:07;23;23;15
55549;PMS7003;41397;49.972;18.944;2024-02-16T18:43:11;16;16;11
55549;PMS7003;41397;49.972;18.944;2024-02-16T18:46:12;18;18;14
55549;PMS7003;41397;49.972;18.944;2024-02-16T18:49:14;29;20;15
55549;PMS7003;41397;49.972;18.944;2024-02-16T18:52:15;16;16;12
55549;PMS7003;41397;49.972;18.944;2024-02-16T18:55:16;20;20;14
55549;PMS7003;41397;49.972;18.944;2024-02-16T18:58:17;10;10;10
55549;PMS7003;41397;49.972;18.944;2024-02-16T19:01:20;30;27;18
55549;PMS7003;41397;49.972;18.944;2024-02-16T19:04:23;42;36;21
55549;PMS7003;41397;49.972;18.944;2024-02-16T19:07:24;31;30;24
55549;PMS7003;41397;49.972;18.944;2024-02-16T19:10:25;9;9;1
55549;PMS7003;41397;49.972;18.944;2024-02-16T19:13:31;26;24;18
55549;PMS7003;41397;49.972;18.944;2024-02-16T19:16:32;30;29;20
55549;PMS7003;41397;49.972;18.944;2024-02-16T19:19:34;34;29;21
55549;PMS7003;41397;49.972;18.944;2024-02-16T19:22:36;28;28;20
55549;PMS7003;41397;49.972;18.944;2024-02-16T19:25:38;46;38;26
55549;PMS7003;41397;49.972;18.944;2024-02-16T19:28:39;60;49;31
55549;PMS7003;41397;49.972;18.944;2024-02-16T19:31:40;72;59;34
55549;PMS7003;41397;49.972;18.944;2024-02-16T19:34:41;59;50;32
55549;PMS7003;41397;49.972;18.944;2024-02-16T19:37:42;49;40;28